createdAt,value
2022-09-12T00:01:39.358Z,77877.30
2022-09-12T00:07:20.566Z,77885.35
2022-09-12T00:13:01.876Z,77882.33
2022-09-12T00:18:43.412Z,77865.22
2022-09-12T00:24:24.855Z,77933.69
2022-09-12T00:30:06.165Z,77938.72
2022-09-12T00:35:47.511Z,77945.77
2022-09-12T00:41:28.897Z,77953.82
2022-09-12T00:47:10.391Z,77961.88
2022-09-12T00:52:51.805Z,77967.92
2022-09-12T00:58:33.756Z,77966.91
2022-09-12T01:04:15.092Z,77942.74
2022-09-12T01:09:56.518Z,77918.58
2022-09-12T01:15:37.839Z,77907.50
2022-09-12T01:21:21.333Z,77921.59
2022-09-12T01:24:40.105Z,77919.59
2022-09-12T01:30:49.005Z,77942.74
2022-09-12T01:36:32.746Z,77934.69
2022-09-12T01:42:13.994Z,77955.83
2022-09-12T01:47:56.994Z,77939.72
2022-09-12T01:53:38.572Z,77949.79
2022-09-12T01:59:20.587Z,77964.89
2022-09-12T02:05:04.248Z,77984.02
2022-09-12T02:10:46.101Z,78009.20
2022-09-12T02:16:27.400Z,78004.16
2022-09-12T02:22:09.109Z,78014.23
2022-09-12T02:27:50.956Z,78019.27
2022-09-12T02:33:32.349Z,78039.41
2022-09-12T02:39:13.940Z,78049.48
2022-09-12T02:44:55.360Z,78056.52
2022-09-12T02:50:37.191Z,78054.51
2022-09-12T02:56:20.140Z,78012.22
2022-09-12T03:02:01.576Z,78004.16
2022-09-12T03:08:13.167Z,78038.40
2022-09-12T03:14:34.935Z,77963.89
2022-09-12T03:20:36.354Z,77953.82
2022-09-12T03:26:17.695Z,77959.86
2022-09-12T03:31:59.037Z,77929.66
2022-09-12T03:37:41.874Z,77926.63
2022-09-12T03:43:23.411Z,77908.51
2022-09-12T03:49:05.437Z,77895.42
2022-09-12T03:54:46.689Z,77871.25
2022-09-12T04:00:27.971Z,77850.11
2022-09-12T04:06:11.761Z,77844.07
2022-09-12T04:11:52.919Z,77806.81
2022-09-12T04:17:34.278Z,77785.67
2022-09-12T04:23:15.562Z,77777.62
2022-09-12T04:28:57.007Z,77817.89
2022-09-12T04:34:40.385Z,77808.83
2022-09-12T04:40:21.788Z,77800.77
2022-09-12T04:46:03.306Z,77766.55
2022-09-12T04:51:46.701Z,77775.61
2022-09-12T04:57:29.815Z,77747.41
2022-09-12T05:03:13.121Z,77742.38
2022-09-12T05:08:54.510Z,77751.44
2022-09-12T05:14:36.080Z,77743.39
2022-09-12T05:20:17.321Z,77693.05
2022-09-12T05:25:58.614Z,77629.62
2022-09-12T05:31:40.387Z,77622.57
2022-09-12T05:37:21.724Z,77630.63
2022-09-12T05:43:04.852Z,77650.77
2022-09-12T05:48:46.472Z,77638.67
2022-09-12T05:54:30.901Z,77650.77
2022-09-12T06:00:09.557Z,77650.77
2022-09-12T06:05:50.963Z,77657.80
2022-09-12T06:11:32.302Z,77668.88
2022-09-12T06:17:13.564Z,77694.05
2022-09-12T06:22:54.909Z,77712.17
2022-09-12T06:28:37.831Z,77714.19
2022-09-12T06:34:19.301Z,77714.19
2022-09-12T06:40:02.071Z,77649.75
2022-09-12T06:45:42.086Z,77312.49
2022-09-12T06:51:25.350Z,77113.17
2022-09-12T06:57:06.895Z,76897.76
2022-09-12T07:02:49.995Z,76885.67
2022-09-12T07:08:31.833Z,76659.20
2022-09-12T07:14:13.612Z,76542.45
2022-09-12T07:19:55.116Z,76400.55
2022-09-12T07:25:36.551Z,76391.48
2022-09-12T07:31:17.861Z,76647.13
2022-09-12T07:36:59.401Z,76718.59
2022-09-12T07:42:40.775Z,76921.91
2022-09-12T07:48:22.419Z,76499.17
2022-09-12T07:54:07.202Z,76656.19
2022-09-12T07:59:53.038Z,76648.13
2022-09-12T08:05:30.592Z,76553.52
2022-09-12T08:11:11.918Z,76567.61
2022-09-12T08:16:53.433Z,76538.42
2022-09-12T08:22:34.797Z,76338.14
2022-09-12T08:28:16.380Z,76053.34
2022-09-12T08:33:57.710Z,76057.36
2022-09-12T08:39:39.300Z,76183.16
2022-09-12T08:45:20.709Z,76269.70
2022-09-12T08:51:02.077Z,76394.50
2022-09-12T08:56:43.387Z,76367.33
2022-09-12T09:02:25.007Z,76274.73
2022-09-12T09:08:06.624Z,75955.73
2022-09-12T09:14:06.616Z,76012.08
2022-09-12T09:19:50.864Z,76219.39
2022-09-12T09:25:29.783Z,76051.33
2022-09-12T09:31:11.739Z,76222.41
2022-09-12T09:36:53.270Z,76142.91
2022-09-12T09:42:44.523Z,76202.28
2022-09-12T09:48:26.863Z,76227.44
2022-09-12T09:54:10.263Z,76144.91
2022-09-12T09:59:51.659Z,76058.37
2022-09-12T10:05:34.527Z,75796.73
2022-09-12T10:11:15.839Z,75743.41
2022-09-12T10:16:57.281Z,75753.47
2022-09-12T10:22:39.247Z,76008.05
2022-09-12T10:28:21.399Z,75759.50
2022-09-12T10:34:05.812Z,75936.61
2022-09-12T10:39:50.862Z,75915.47
2022-09-12T10:45:32.559Z,75742.40
2022-09-12T10:51:15.857Z,75759.50
2022-09-12T10:56:59.308Z,75672.97
2022-09-12T11:02:40.959Z,75881.27
2022-09-12T11:08:22.549Z,75782.64
2022-09-12T11:14:04.429Z,75887.30
2022-09-12T11:19:47.353Z,75959.75
2022-09-12T11:25:31.460Z,76021.14
2022-09-12T11:31:22.781Z,76189.20
2022-09-12T11:37:08.600Z,76042.27
2022-09-12T11:42:45.672Z,76112.72
2022-09-12T11:48:27.760Z,76339.15
2022-09-12T11:54:09.835Z,76278.77
2022-09-12T11:59:51.673Z,76282.79
2022-09-12T12:05:34.967Z,76252.59
2022-09-12T12:11:16.380Z,76219.39
2022-09-12T12:16:59.975Z,76252.59
2022-09-12T12:22:43.474Z,76460.92
2022-09-12T12:28:38.243Z,76382.42
2022-09-12T12:34:19.673Z,76374.38
2022-09-12T12:40:04.234Z,76443.81
2022-09-12T12:46:32.654Z,76339.15
2022-09-12T12:52:17.532Z,76316.00
2022-09-12T12:58:09.175Z,76383.44
2022-09-12T13:09:13.014Z,76305.94
2022-09-12T13:14:54.477Z,76296.88
2022-09-12T13:20:45.708Z,76408.59
2022-09-12T13:26:36.081Z,76320.03
2022-09-12T13:32:24.030Z,76254.61
2022-09-12T13:38:08.263Z,76222.41
2022-09-12T13:43:50.205Z,76150.95
2022-09-12T13:49:31.761Z,76216.37
2022-09-12T13:55:15.394Z,76302.92
2022-09-12T14:00:56.948Z,76220.39
2022-09-12T14:06:40.125Z,76192.22
2022-09-12T14:12:26.382Z,76152.97
2022-09-12T14:18:09.746Z,76071.45
2022-09-12T14:23:51.237Z,76126.80
2022-09-12T14:29:32.695Z,76154.98
2022-09-12T14:35:17.608Z,76078.50
2022-09-12T14:40:59.797Z,76172.09
2022-09-12T14:46:41.529Z,76224.42
2022-09-12T14:52:22.761Z,76232.47
2022-09-12T14:58:10.075Z,76256.63
2022-09-12T15:03:52.183Z,76289.83
2022-09-12T15:09:33.198Z,76275.75
2022-09-12T15:15:14.991Z,76261.66
2022-09-12T15:20:56.330Z,76258.64
2022-09-12T15:26:47.755Z,76268.70
2022-09-12T15:32:29.322Z,76270.71
2022-09-12T15:38:12.868Z,76240.52
2022-09-12T15:43:54.213Z,76245.55
2022-09-12T15:49:35.523Z,76232.47
2022-09-12T15:55:17.008Z,76221.41
2022-09-12T16:00:58.358Z,76235.48
2022-09-12T16:06:39.633Z,76242.53
2022-09-12T16:12:20.909Z,76260.65
2022-09-12T16:18:04.176Z,76343.17
2022-09-12T16:23:45.623Z,76351.23
2022-09-12T16:29:27.207Z,76376.39
2022-09-12T16:35:08.500Z,76348.20
2022-09-12T16:40:49.846Z,76377.39
2022-09-12T16:46:31.519Z,76385.45
2022-09-12T16:52:14.810Z,76407.59
2022-09-12T16:57:57.808Z,76439.80
2022-09-12T17:03:39.065Z,76443.81
2022-09-12T17:09:20.599Z,76440.80
